createdAt,value
2023-04-15T00:01:19.093Z,99972.59
2023-04-15T00:03:47.763Z,99968.53
2023-04-15T00:06:17.470Z,99962.81
2023-04-15T00:08:45.611Z,99965.25
2023-04-15T00:11:13.726Z,99961.47
2023-04-15T00:13:42.159Z,99958.81
2023-04-15T00:16:10.855Z,99962.84
2023-04-15T00:18:39.236Z,99962.06
2023-04-15T00:21:07.388Z,99969.41
2023-04-15T00:23:37.356Z,99964.25
2023-04-15T00:26:05.733Z,99960.78
2023-04-15T00:28:34.522Z,99955.47
2023-04-15T00:31:02.663Z,99963.91
2023-04-15T00:33:30.901Z,99971.00
2023-04-15T00:35:59.312Z,99968.06
2023-04-15T00:38:28.087Z,99966.19
2023-04-15T00:40:58.416Z,99964.63
2023-04-15T00:43:27.647Z,99961.91
2023-04-15T00:45:58.032Z,99963.59
2023-04-15T00:48:27.953Z,99967.41
2023-04-15T00:50:56.659Z,99966.09
2023-04-15T00:53:24.831Z,99962.59
2023-04-15T00:55:53.182Z,99965.13
2023-04-15T00:58:22.671Z,99959.56
2023-04-15T01:00:54.215Z,99963.91
2023-04-15T01:03:22.720Z,99959.03
2023-04-15T01:05:51.159Z,99957.94
2023-04-15T01:08:19.336Z,99965.03
2023-04-15T01:10:47.560Z,99963.94
2023-04-15T01:13:15.680Z,99963.97
2023-04-15T01:15:45.370Z,99959.69
2023-04-15T01:18:14.460Z,99964.03
2023-04-15T01:20:42.855Z,99968.94
2023-04-15T01:23:11.476Z,99966.81
2023-04-15T01:25:42.992Z,99966.28
2023-04-15T01:28:11.325Z,99965.53
2023-04-15T01:30:39.494Z,99968.78
2023-04-15T01:33:07.791Z,99966.91
2023-04-15T01:35:36.240Z,99964.22
2023-04-15T01:38:05.999Z,99952.03
2023-04-15T01:40:34.929Z,99958.03
2023-04-15T01:43:04.705Z,99947.44
2023-04-15T01:45:32.877Z,99959.50
2023-04-15T01:48:01.360Z,99955.16
2023-04-15T01:50:29.769Z,99964.44
2023-04-15T01:52:58.248Z,99968.56
2023-04-15T01:55:26.995Z,99967.75
2023-04-15T01:57:55.115Z,99971.81
2023-04-15T02:00:24.827Z,99973.13
2023-04-15T02:02:53.075Z,99969.88
2023-04-15T02:05:21.369Z,99968.75
2023-04-15T02:07:49.544Z,99969.84
2023-04-15T02:10:18.422Z,99975.28
2023-04-15T02:13:01.092Z,99974.47
2023-04-15T02:15:31.005Z,99973.13
2023-04-15T02:18:00.797Z,99976.34
2023-04-15T02:20:31.173Z,99974.25
2023-04-15T02:22:59.592Z,99969.63
2023-04-15T02:25:28.861Z,99985.41
2023-04-15T02:27:58.600Z,99982.06
2023-04-15T02:30:27.137Z,99985.31
2023-04-15T02:32:56.618Z,99986.13
2023-04-15T02:35:25.793Z,99985.31
2023-04-15T02:37:53.979Z,99983.47
2023-04-15T02:40:22.658Z,99990.00
2023-04-15T02:42:51.003Z,99985.66
2023-04-15T02:45:23.522Z,99995.97
2023-04-15T02:47:51.735Z,99998.16
2023-04-15T02:50:21.403Z,99997.31
2023-04-15T02:52:49.908Z,100011.44
2023-04-15T02:55:18.019Z,100010.91
2023-04-15T02:57:46.180Z,100006.59
2023-04-15T03:00:14.931Z,100003.91
2023-04-15T03:02:43.406Z,100015.31
2023-04-15T03:05:12.788Z,100017.75
2023-04-15T03:07:42.443Z,100018.31
2023-04-15T03:10:12.012Z,100019.66
2023-04-15T03:12:40.638Z,100022.09
2023-04-15T03:15:09.515Z,100016.16
2023-04-15T03:17:51.977Z,100032.41
2023-04-15T03:20:20.411Z,100026.97
2023-04-15T03:22:49.871Z,100026.44
2023-04-15T03:25:18.207Z,100033.75
2023-04-15T03:27:46.315Z,100032.94
2023-04-15T03:30:14.455Z,100033.47
2023-04-15T03:32:42.761Z,100032.94
2023-04-15T03:35:10.955Z,100036.22
2023-04-15T03:37:39.239Z,100024.28
2023-04-15T03:40:09.705Z,100027.53
2023-04-15T03:42:37.803Z,100042.72
2023-04-15T03:45:07.516Z,100041.06
2023-04-15T03:47:35.844Z,100043.25
2023-04-15T03:50:04.234Z,100034.56
2023-04-15T03:52:32.517Z,100040.53
2023-04-15T03:55:00.637Z,100042.16
2023-04-15T03:57:30.196Z,100038.38
2023-04-15T03:59:58.297Z,100045.97
2023-04-15T04:02:28.250Z,100043.78
2023-04-15T04:04:56.625Z,100044.31
2023-04-15T04:07:25.261Z,100051.66
2023-04-15T04:09:53.551Z,100051.41
2023-04-15T04:12:21.954Z,100043.28
2023-04-15T04:14:51.379Z,100047.63
2023-04-15T04:17:19.627Z,100054.41
2023-04-15T04:19:47.728Z,100055.47
2023-04-15T04:22:16.167Z,100050.88
2023-04-15T04:24:44.246Z,100055.22
2023-04-15T04:27:12.449Z,100063.34
2023-04-15T04:29:40.552Z,100056.28
2023-04-15T04:32:10.237Z,100067.94
2023-04-15T04:34:38.521Z,100063.88
2023-04-15T04:37:07.066Z,100060.06
2023-04-15T04:39:35.234Z,100061.72
2023-04-15T04:42:03.531Z,100064.94
2023-04-15T04:44:31.672Z,100067.41
2023-04-15T04:46:59.748Z,100068.75
2023-04-15T04:49:29.293Z,100074.72
2023-04-15T04:51:58.037Z,100073.09
2023-04-15T04:54:27.619Z,100073.09
2023-04-15T04:56:57.959Z,100078.50
2023-04-15T04:59:26.342Z,100089.59
2023-04-15T05:01:54.547Z,100092.84
2023-04-15T05:04:22.822Z,100094.22
2023-04-15T05:06:52.225Z,100098.81
2023-04-15T05:09:20.520Z,100096.38
2023-04-15T05:11:48.611Z,100101.22
2023-04-15T05:14:16.712Z,100102.06
2023-04-15T05:16:44.894Z,100102.84
2023-04-15T05:19:13.071Z,100113.69
2023-04-15T05:21:41.520Z,100115.88
2023-04-15T05:24:10.924Z,100118.53
2023-04-15T05:26:39.038Z,100120.44
2023-04-15T05:29:07.239Z,100124.50
2023-04-15T05:31:35.475Z,100126.13
2023-04-15T05:34:03.798Z,100131.50
2023-04-15T05:36:32.418Z,100133.38
2023-04-15T05:39:00.785Z,100135.81
2023-04-15T05:41:30.692Z,100130.34
2023-04-15T05:43:58.852Z,100136.25
2023-04-15T05:46:27.514Z,100137.53
2023-04-15T05:48:56.600Z,100142.97
2023-04-15T05:51:24.980Z,100151.84
2023-04-15T05:53:53.176Z,100148.59
2023-04-15T05:56:21.407Z,100146.97
2023-04-15T05:58:52.527Z,100156.16
2023-04-15T06:01:22.289Z,100154.44
2023-04-15T06:03:51.277Z,100156.88
2023-04-15T06:06:20.355Z,100155.47
2023-04-15T06:08:48.644Z,100169.44
2023-04-15T06:11:16.768Z,100165.53
2023-04-15T06:13:45.179Z,100169.88
2023-04-15T06:16:14.766Z,100170.25
2023-04-15T06:18:44.212Z,100169.91
2023-04-15T06:21:12.536Z,100174.81
2023-04-15T06:23:41.920Z,100180.28
2023-04-15T06:26:10.363Z,100186.66
2023-04-15T06:28:38.544Z,100187.00
2023-04-15T06:31:07.120Z,100188.25
2023-04-15T06:33:36.576Z,100186.34
2023-04-15T06:36:04.907Z,100196.44
2023-04-15T06:38:33.061Z,100194.16
2023-04-15T06:41:01.251Z,100199.16
2023-04-15T06:43:30.670Z,100195.91
2023-04-15T06:45:58.850Z,100188.19
2023-04-15T06:48:27.534Z,100191.69
2023-04-15T06:50:58.211Z,100193.44
2023-04-15T06:53:26.468Z,100195.84
2023-04-15T06:55:54.600Z,100204.06
2023-04-15T06:58:57.125Z,100200.41
2023-04-15T07:01:25.435Z,100197.09
2023-04-15T07:03:53.576Z,100204.69
2023-04-15T07:06:23.106Z,100202.25
2023-04-15T07:08:51.169Z,100202.00
2023-04-15T07:11:19.313Z,100197.84
2023-04-15T07:13:47.555Z,100198.44
2023-04-15T07:16:15.879Z,100204.50
2023-04-15T07:18:44.350Z,100213.75
2023-04-15T07:21:12.566Z,100215.69
2023-04-15T07:23:43.135Z,100224.91
2023-04-15T07:26:12.203Z,100212.25
2023-04-15T07:28:40.433Z,100222.75
2023-04-15T07:31:08.720Z,100214.06
2023-04-15T07:33:36.971Z,100229.84
2023-04-15T07:36:05.198Z,100221.88
2023-04-15T07:38:33.376Z,100220.31
2023-04-15T07:41:02.923Z,100221.59
2023-04-15T07:43:31.092Z,100225.56
2023-04-15T07:45:59.976Z,100218.31
2023-04-15T07:48:28.170Z,100222.47
2023-04-15T07:50:56.377Z,100231.25
2023-04-15T07:53:24.510Z,100220.25
2023-04-15T07:55:52.605Z,100228.31
2023-04-15T07:58:22.055Z,100222.72
2023-04-15T08:00:50.243Z,100238.00
2023-04-15T08:03:18.515Z,100235.31
2023-04-15T08:05:47.242Z,100240.34
2023-04-15T08:08:15.422Z,100236.22
2023-04-15T08:10:43.548Z,100241.34
2023-04-15T08:13:11.759Z,100247.78
2023-04-15T08:15:41.446Z,100240.09
2023-04-15T08:18:09.644Z,100245.56
2023-04-15T08:20:38.391Z,100244.44
2023-04-15T08:23:06.858Z,100246.38
2023-04-15T08:25:36.844Z,100253.03
2023-04-15T08:28:05.318Z,100245.28
2023-04-15T08:30:33.647Z,100246.75
2023-04-15T08:33:03.486Z,100246.66
2023-04-15T08:35:31.708Z,100245.16
2023-04-15T08:38:00.909Z,100250.50
2023-04-15T08:40:35.261Z,100249.16
2023-04-15T08:43:05.103Z,100256.72
2023-04-15T08:45:34.708Z,100263.31
2023-04-15T08:48:06.203Z,100260.75
2023-04-15T08:50:35.746Z,100255.41
2023-04-15T08:53:04.132Z,100256.78
2023-04-15T08:55:35.906Z,100256.53
2023-04-15T08:58:05.640Z,100254.22
2023-04-15T09:00:34.492Z,100258.03
2023-04-15T09:03:03.260Z,100263.41
2023-04-15T09:05:33.725Z,100257.34
2023-04-15T09:08:02.196Z,100267.25
2023-04-15T09:10:32.747Z,100274.44
2023-04-15T09:13:01.141Z,100281.84
2023-04-15T09:15:30.182Z,100281.66
2023-04-15T09:17:58.325Z,100280.00
2023-04-15T09:20:27.211Z,100289.84
2023-04-15T09:22:57.102Z,100305.78
2023-04-15T09:25:29.220Z,100298.16
2023-04-15T09:27:58.416Z,100301.44
2023-04-15T09:30:38.289Z,100311.47
2023-04-15T09:33:08.791Z,100309.22
2023-04-15T09:35:57.460Z,100310.53
2023-04-15T09:38:27.130Z,100310.31
2023-04-15T09:40:55.306Z,100313.97
2023-04-15T09:43:23.606Z,100317.94
2023-04-15T09:45:52.926Z,100316.78
2023-04-15T09:48:22.250Z,100317.16
2023-04-15T09:50:50.989Z,100310.78
2023-04-15T09:53:20.027Z,100326.69
2023-04-15T09:55:52.266Z,100329.44
2023-04-15T09:58:20.940Z,100324.47
2023-04-15T10:00:49.981Z,100332.31
2023-04-15T10:03:21.086Z,100335.22
2023-04-15T10:05:50.302Z,100336.38
2023-04-15T10:08:19.475Z,100341.22
2023-04-15T10:11:05.518Z,100347.72
2023-04-15T10:13:36.016Z,100339.00
2023-04-15T10:16:08.383Z,100350.41
2023-04-15T10:18:37.155Z,100347.09
2023-04-15T10:21:06.481Z,100348.94
2023-04-15T10:23:34.697Z,100348.34
2023-04-15T10:26:03.518Z,100349.44
2023-04-15T10:28:33.135Z,100351.69
2023-04-15T10:31:02.004Z,100352.69
2023-04-15T10:33:30.928Z,100354.25
2023-04-15T10:35:59.468Z,100360.78
2023-04-15T10:38:34.533Z,100368.22
2023-04-15T10:41:21.152Z,100369.59
2023-04-15T10:43:52.879Z,100369.59
2023-04-15T10:46:35.161Z,100373.38
2023-04-15T10:49:08.180Z,100379.66
2023-04-15T10:51:41.409Z,100387.88
2023-04-15T10:54:10.436Z,100386.97
2023-04-15T10:56:38.511Z,100385.63
2023-04-15T10:59:08.052Z,100379.16
2023-04-15T11:01:51.433Z,100385.03
2023-04-15T11:04:34.707Z,100384.63
2023-04-15T11:07:06.761Z,100386.66
2023-04-15T11:09:35.454Z,100385.53
2023-04-15T11:12:09.518Z,100384.97
2023-04-15T11:14:43.149Z,100387.91
2023-04-15T11:17:11.481Z,100392.63
2023-04-15T11:19:39.990Z,100391.94
2023-04-15T11:22:08.875Z,100391.44
2023-04-15T11:24:37.968Z,100397.78
2023-04-15T11:27:09.643Z,100403.25
2023-04-15T11:29:38.037Z,100409.53
2023-04-15T11:32:10.262Z,100410.97
2023-04-15T11:34:38.809Z,100415.91
2023-04-15T11:37:07.991Z,100416.72
2023-04-15T11:39:38.194Z,100415.69
2023-04-15T11:42:17.292Z,100424.31
2023-04-15T11:44:45.651Z,100431.63
2023-04-15T11:47:24.810Z,100425.66
2023-04-15T11:49:53.051Z,100429.22
2023-04-15T11:52:21.440Z,100432.34
2023-04-15T11:54:49.633Z,100429.38
2023-04-15T11:57:17.891Z,100433.72
2023-04-15T11:59:46.380Z,100436.16
2023-04-15T12:02:14.882Z,100428.34
2023-04-15T12:04:45.915Z,100435.34
2023-04-15T12:07:14.215Z,100430.50
2023-04-15T12:09:42.649Z,100436.69
2023-04-15T12:12:12.257Z,100441.13
2023-04-15T12:14:42.312Z,100440.56
2023-04-15T12:17:13.077Z,100441.75
2023-04-15T12:19:42.236Z,100446.53
2023-04-15T12:22:12.571Z,100446.81
2023-04-15T12:24:41.298Z,100459.38
2023-04-15T12:27:18.132Z,100460.00
2023-04-15T12:29:46.395Z,100469.31
2023-04-15T12:32:15.025Z,100460.50
2023-04-15T12:34:44.512Z,100469.94
2023-04-15T12:37:14.438Z,100463.44
2023-04-15T12:39:44.993Z,100475.16
2023-04-15T12:42:13.378Z,100473.53
2023-04-15T12:44:41.472Z,100479.00
2023-04-15T12:47:10.230Z,100481.00
2023-04-15T12:49:39.301Z,100483.59
2023-04-15T12:52:07.672Z,100488.56
2023-04-15T12:54:37.183Z,100487.31
2023-04-15T12:57:07.178Z,100494.22
2023-04-15T12:59:35.780Z,100503.97
2023-04-15T13:02:04.735Z,100503.38
2023-04-15T13:04:33.131Z,100499.34
2023-04-15T13:07:02.297Z,100503.66
2023-04-15T13:09:31.190Z,100506.69
2023-04-15T13:12:01.420Z,100510.69
2023-04-15T13:14:29.615Z,100508.66
2023-04-15T13:16:57.953Z,100510.88
2023-04-15T13:19:26.673Z,100519.59
2023-04-15T13:21:55.060Z,100513.75
2023-04-15T13:24:23.839Z,100520.13
2023-04-15T13:26:52.280Z,100519.81
2023-04-15T13:29:22.108Z,100527.19
2023-04-15T13:31:50.410Z,100528.41
2023-04-15T13:34:18.781Z,100528.00
2023-04-15T13:36:47.113Z,100531.25
2023-04-15T13:39:15.339Z,100530.44
2023-04-15T13:41:43.490Z,100536.44
2023-04-15T13:44:12.215Z,100539.25
2023-04-15T13:46:42.641Z,100545.13
2023-04-15T13:49:11.161Z,100544.50
2023-04-15T13:51:40.609Z,100539.13
2023-04-15T13:54:09.230Z,100557.00
2023-04-15T13:56:37.631Z,100543.56
2023-04-15T13:59:06.679Z,100553.31
2023-04-15T14:01:35.638Z,100552.41
2023-04-15T14:04:10.641Z,100550.63
2023-04-15T14:06:39.364Z,100561.44
2023-04-15T14:09:07.745Z,100564.09
2023-04-15T14:11:36.740Z,100571.38
2023-04-15T14:14:05.012Z,100565.09
2023-04-15T14:16:33.450Z,100578.84
2023-04-15T14:19:02.662Z,100582.25
2023-04-15T14:21:33.664Z,100591.50
2023-04-15T14:24:02.032Z,100587.50
2023-04-15T14:26:30.198Z,100584.06
2023-04-15T14:28:58.738Z,100587.03
2023-04-15T14:31:27.343Z,100593.25
2023-04-15T14:33:55.987Z,100594.44
2023-04-15T14:36:24.376Z,100611.06
2023-04-15T14:38:53.902Z,100594.94
2023-04-15T14:41:23.312Z,100603.38
2023-04-15T14:43:51.559Z,100611.63
2023-04-15T14:46:19.780Z,100613.31
2023-04-15T14:48:48.182Z,100620.81
2023-04-15T14:51:17.172Z,100613.94
2023-04-15T14:53:46.148Z,100615.88
2023-04-15T14:56:15.854Z,100615.03
2023-04-15T14:58:44.778Z,100621.03
2023-04-15T15:01:13.818Z,100621.13
2023-04-15T15:03:42.952Z,100626.59
2023-04-15T15:06:11.872Z,100629.41
2023-04-15T15:08:44.094Z,100626.63
2023-04-15T15:11:13.002Z,100634.00
2023-04-15T15:13:43.922Z,100635.47
2023-04-15T15:16:14.629Z,100638.19
2023-04-15T15:18:43.157Z,100646.09
2023-04-15T15:21:32.546Z,100647.19
2023-04-15T15:24:00.894Z,100642.06
2023-04-15T15:26:29.775Z,100652.50
2023-04-15T15:29:01.111Z,100655.06
2023-04-15T15:31:29.589Z,100649.38
2023-04-15T15:33:59.008Z,100643.34
2023-04-15T15:36:28.334Z,100649.38
2023-04-15T15:38:57.006Z,100647.97
2023-04-15T15:41:26.041Z,100658.09
2023-04-15T15:43:54.681Z,100655.88
2023-04-15T15:46:25.540Z,100658.84
2023-04-15T15:48:55.986Z,100660.28
2023-04-15T15:51:25.091Z,100670.72
2023-04-15T15:53:55.308Z,100658.69
2023-04-15T15:56:26.919Z,100666.41
2023-04-15T15:58:55.627Z,100668.28
2023-04-15T16:01:26.451Z,100668.03
2023-04-15T16:03:55.551Z,100677.88
2023-04-15T16:06:24.120Z,100671.84
2023-04-15T16:08:52.788Z,100676.25
2023-04-15T16:11:21.170Z,100684.50
2023-04-15T16:13:50.272Z,100688.34
2023-04-15T16:16:19.548Z,100689.50
2023-04-15T16:18:51.918Z,100702.34
2023-04-15T16:21:20.630Z,100702.03
2023-04-15T16:23:48.776Z,100700.75
2023-04-15T16:26:16.936Z,100711.47
2023-04-15T16:28:45.456Z,100709.50
2023-04-15T16:31:13.778Z,100724.56
2023-04-15T16:33:41.907Z,100719.66
2023-04-15T16:36:11.489Z,100729.25
2023-04-15T16:38:39.660Z,100739.03
2023-04-15T16:41:07.765Z,100741.50
2023-04-15T16:43:36.418Z,100736.63
2023-04-15T16:46:04.551Z,100748.09
2023-04-15T16:48:32.745Z,100755.16
2023-04-15T16:51:01.020Z,100755.16
2023-04-15T16:53:30.478Z,100754.63
2023-04-15T16:55:58.619Z,100754.09
2023-04-15T16:58:27.628Z,100757.91
2023-04-15T17:00:56.002Z,100753.63
2023-04-15T17:03:24.310Z,100759.03
2023-04-15T17:05:52.590Z,100761.25
2023-04-15T17:08:20.794Z,100767.25
2023-04-15T17:10:51.960Z,100764.00
2023-04-15T17:13:20.444Z,100769.44
2023-04-15T17:15:48.562Z,100778.72
2023-04-15T17:18:16.696Z,100782.00
2023-04-15T17:20:44.794Z,100775.44
2023-04-15T17:23:13.021Z,100783.88
2023-04-15T17:25:41.269Z,100778.19
2023-04-15T17:28:10.785Z,100785.31
2023-04-15T17:30:38.978Z,100785.81
2023-04-15T17:34:00.068Z,100782.50
2023-04-15T17:35:55.436Z,100784.72
2023-04-15T17:38:23.552Z,100791.53
2023-04-15T17:40:51.979Z,100795.91
2023-04-15T17:43:21.468Z,100797.56
2023-04-15T17:45:50.161Z,100801.66
2023-04-15T17:48:18.327Z,100800.81
2023-04-15T17:50:51.933Z,100810.59
2023-04-15T17:53:21.012Z,100820.44
2023-04-15T17:55:50.548Z,100820.75
2023-04-15T17:58:18.689Z,100825.63
2023-04-15T18:00:48.414Z,100825.63
2023-04-15T18:03:16.962Z,100827.28
2023-04-15T18:05:45.260Z,100829.19
2023-04-15T18:08:13.448Z,100836.00
2023-04-15T18:10:41.583Z,100837.63
2023-04-15T18:13:09.706Z,100838.72
2023-04-15T18:15:38.012Z,100843.88
2023-04-15T18:18:07.870Z,100844.97
2023-04-15T18:20:36.147Z,100850.97
2023-04-15T18:23:04.377Z,100847.44
2023-04-15T18:25:34.145Z,100851.78
2023-04-15T18:28:02.564Z,100855.88
2023-04-15T18:30:31.100Z,100859.41
2023-04-15T18:32:59.579Z,100861.88
2023-04-15T18:35:30.782Z,100864.31
2023-04-15T18:37:59.580Z,100876.31
2023-04-15T18:40:28.573Z,100876.03
2023-04-15T18:42:57.193Z,100873.31
2023-04-15T18:45:25.823Z,100882.28
2023-04-15T18:47:54.661Z,100882.84
2023-04-15T18:50:23.346Z,100889.91
2023-04-15T18:52:53.384Z,100887.19
2023-04-15T18:55:21.650Z,100896.19
2023-04-15T18:57:50.073Z,100887.19
2023-04-15T19:00:20.108Z,100903.53
2023-04-15T19:02:48.877Z,100895.38
2023-04-15T19:05:17.272Z,100905.16
2023-04-15T19:07:46.105Z,100907.34
2023-04-15T19:10:16.085Z,100917.44
2023-04-15T19:12:44.574Z,100909.53
2023-04-15T19:15:13.032Z,100914.44
2023-04-15T19:17:41.598Z,100916.88
2023-04-15T19:20:10.203Z,100922.59
2023-04-15T19:22:38.788Z,100929.69
2023-04-15T19:25:07.480Z,100929.41
2023-04-15T19:27:38.322Z,100930.25
2023-04-15T19:30:08.248Z,100932.94
2023-04-15T19:32:37.023Z,100939.22
2023-04-15T19:35:05.868Z,100935.13
2023-04-15T19:37:34.500Z,100942.22
2023-04-15T19:40:03.069Z,100936.22
2023-04-15T19:42:31.930Z,100944.38
2023-04-15T19:45:01.648Z,100941.13
2023-04-15T19:47:31.897Z,100943.84
2023-04-15T19:50:00.325Z,100938.13
2023-04-15T19:52:29.150Z,100941.38
2023-04-15T19:54:58.144Z,100943.84
2023-04-15T19:57:26.436Z,100938.13
2023-04-15T19:59:54.992Z,100943.00
2023-04-15T20:02:25.100Z,100930.75
2023-04-15T20:04:53.657Z,100929.66
2023-04-15T20:07:22.126Z,100936.75
2023-04-15T20:09:51.846Z,100946.81
2023-04-15T20:12:50.151Z,100938.38
2023-04-15T20:15:09.614Z,100940.56
2023-04-15T20:17:39.292Z,100949.81
2023-04-15T20:20:08.436Z,100946.56
2023-04-15T20:22:36.807Z,100956.09
2023-04-15T20:25:05.818Z,100961.81
2023-04-15T20:27:34.617Z,100965.91
2023-04-15T20:30:04.256Z,100964.56
2023-04-15T20:32:35.713Z,100956.91
2023-04-15T20:35:07.030Z,100958.81
2023-04-15T20:37:36.304Z,100963.47
2023-04-15T20:40:05.149Z,100961.81
2023-04-15T20:42:34.245Z,100967.53
2023-04-15T20:45:03.181Z,100964.56
2023-04-15T20:47:31.660Z,100966.19
2023-04-15T20:50:00.161Z,100970.81
2023-04-15T20:52:31.163Z,100976.25
2023-04-15T20:54:59.763Z,100974.63
2023-04-15T20:57:30.154Z,100984.41
2023-04-15T20:59:58.409Z,100973.81
2023-04-15T21:02:27.417Z,100977.31
2023-04-15T21:04:56.028Z,100971.59
2023-04-15T21:07:24.501Z,100968.09
2023-04-15T21:09:55.386Z,100977.59
2023-04-15T21:12:24.261Z,100981.41
2023-04-15T21:14:52.947Z,100984.69
2023-04-15T21:17:21.617Z,100985.22
2023-04-15T21:19:50.260Z,100983.84
2023-04-15T21:22:19.089Z,100992.31
2023-04-15T21:24:47.969Z,100990.66
2023-04-15T21:27:18.436Z,100992.84
2023-04-15T21:29:46.826Z,100992.31
2023-04-15T21:32:15.849Z,101001.56
2023-04-15T21:34:44.575Z,101000.47
2023-04-15T21:37:13.508Z,101005.91
2023-04-15T21:39:42.210Z,101008.94
2023-04-15T21:42:10.758Z,101014.09
2023-04-15T21:44:41.358Z,101018.44
2023-04-15T21:47:10.623Z,101030.16
2023-04-15T21:49:39.290Z,101028.53
2023-04-15T21:52:08.085Z,101033.44
2023-04-15T21:54:38.021Z,101030.41
2023-04-15T21:57:06.439Z,101026.06
2023-04-15T21:59:35.038Z,101026.63
2023-04-15T22:02:04.859Z,101027.69
2023-04-15T22:04:33.711Z,101031.50
2023-04-15T22:07:04.682Z,101034.53
2023-04-15T22:09:33.485Z,101037.25
2023-04-15T22:12:02.304Z,101038.59
2023-04-15T22:14:31.426Z,101045.72
2023-04-15T22:17:00.943Z,101041.31
2023-04-15T22:19:31.194Z,101045.97
2023-04-15T22:22:00.085Z,101043.50
2023-04-15T22:24:36.856Z,101048.13
2023-04-15T22:27:09.694Z,101048.94
2023-04-15T22:29:39.999Z,101046.78
2023-04-15T22:32:09.097Z,101059.84
2023-04-15T22:34:39.262Z,101055.47
2023-04-15T22:37:08.572Z,101057.94
2023-04-15T22:39:37.699Z,101062.00
2023-04-15T22:42:06.263Z,101060.94
2023-04-15T22:44:35.455Z,101061.22
2023-04-15T22:47:04.064Z,101064.19
2023-04-15T22:49:35.461Z,101063.69
2023-04-15T22:52:05.298Z,101065.84
2023-04-15T22:54:33.697Z,101071.81
2023-04-15T22:57:02.513Z,101070.72
2023-04-15T22:59:30.831Z,101075.09
2023-04-15T23:01:59.264Z,101072.38
2023-04-15T23:04:28.093Z,101069.91
2023-04-15T23:06:56.889Z,101080.53
2023-04-15T23:09:27.241Z,101084.91
2023-04-15T23:11:56.498Z,101089.25
2023-04-15T23:14:26.088Z,101092.81
2023-04-15T23:16:54.610Z,101086.53
2023-04-15T23:19:22.714Z,101086.00
2023-04-15T23:21:56.783Z,101084.91
2023-04-15T23:24:26.325Z,101088.19
2023-04-15T23:26:54.930Z,101082.72
2023-04-15T23:29:23.479Z,101087.06
2023-04-15T23:31:52.027Z,101077.25
2023-04-15T23:34:20.222Z,101086.25
2023-04-15T23:36:48.395Z,101078.38
2023-04-15T23:39:16.862Z,101078.38
2023-04-15T23:41:46.571Z,101089.03
2023-04-15T23:44:14.646Z,101080.84
2023-04-15T23:46:42.855Z,101091.75
2023-04-15T23:49:11.219Z,101086.28
2023-04-15T23:51:39.677Z,101094.44
2023-04-15T23:54:07.862Z,101091.44
2023-04-15T23:56:36.394Z,101097.44
2023-04-15T23:59:06.265Z,101097.16
